METAR Data
IDs: Format: Raw Decoded Include TAF

Data at: 0251 UTC 20 Jan 2022

EBCV 200025Z AUTO 26004KT 9999 BKN027/// 03/02 Q1027 BLU